createdAt,value
2022-09-07T00:01:01.796Z,95.66
2022-09-07T00:03:29.766Z,95.79
2022-09-07T00:05:59.186Z,96.19
2022-09-07T00:08:28.069Z,96.16
2022-09-07T00:10:57.749Z,96.41
2022-09-07T00:13:27.948Z,96.60
2022-09-07T00:15:56.534Z,96.60
2022-09-07T00:18:24.778Z,96.45
2022-09-07T00:21:00.936Z,96.27
2022-09-07T00:23:30.045Z,96.20
2022-09-07T00:26:01.673Z,96.24
2022-09-07T00:28:29.961Z,95.70
2022-09-07T00:30:58.085Z,95.98
2022-09-07T00:33:26.691Z,95.63
2022-09-07T00:35:54.912Z,95.88
2022-09-07T00:38:24.296Z,96.21
2022-09-07T00:40:52.265Z,95.35
2022-09-07T00:43:32.553Z,96.14
2022-09-07T00:46:00.695Z,96.06
2022-09-07T00:48:34.685Z,95.79
2022-09-07T00:51:06.379Z,95.86
2022-09-07T00:53:41.117Z,96.12
2022-09-07T00:56:10.756Z,95.82
2022-09-07T00:58:42.186Z,95.80
2022-09-07T01:01:10.274Z,95.77
2022-09-07T01:03:41.955Z,94.81
2022-09-07T01:06:16.679Z,94.66
2022-09-07T01:08:49.748Z,94.89
2022-09-07T01:11:19.533Z,94.94
2022-09-07T01:13:49.872Z,94.21
2022-09-07T01:16:28.859Z,95.13
2022-09-07T01:19:11.006Z,95.93
2022-09-07T01:21:58.224Z,91.44
2022-09-07T01:24:42.771Z,93.00
2022-09-07T01:27:50.369Z,94.06
2022-09-07T01:30:20.618Z,94.81
2022-09-07T01:33:06.496Z,94.54
2022-09-07T01:35:44.873Z,95.51
2022-09-07T01:38:21.394Z,95.52
2022-09-07T01:40:58.159Z,95.82
2022-09-07T01:43:36.442Z,95.53
2022-09-07T01:46:08.798Z,95.85
2022-09-07T01:48:40.648Z,96.42
2022-09-07T01:51:13.497Z,96.48
2022-09-07T01:53:44.748Z,96.86
2022-09-07T01:56:16.589Z,96.34
2022-09-07T01:58:49.043Z,95.92
2022-09-07T02:01:26.382Z,96.08
2022-09-07T02:04:00.270Z,96.14
2022-09-07T02:06:35.898Z,96.59
2022-09-07T02:09:07.972Z,96.88
2022-09-07T02:11:38.613Z,95.03
2022-09-07T02:14:12.666Z,95.46
2022-09-07T02:16:46.113Z,93.37
2022-09-07T02:19:18.982Z,94.49
2022-09-07T02:21:51.247Z,94.49
2022-09-07T02:24:24.602Z,93.03
2022-09-07T02:26:54.449Z,89.50
2022-09-07T02:29:25.226Z,91.85
2022-09-07T02:31:54.956Z,92.33
2022-09-07T02:34:22.899Z,92.93
2022-09-07T02:36:52.429Z,92.87
2022-09-07T02:39:20.328Z,90.98
2022-09-07T02:41:48.368Z,90.82
2022-09-07T02:44:20.548Z,92.77
2022-09-07T02:47:04.274Z,92.08
2022-09-07T02:49:47.014Z,89.94
2022-09-07T02:52:26.662Z,90.42
2022-09-07T02:55:06.511Z,89.84
2022-09-07T02:57:45.475Z,90.00
2022-09-07T03:00:17.970Z,90.43
2022-09-07T03:02:55.332Z,90.44
2022-09-07T03:05:29.127Z,90.53
2022-09-07T03:08:02.258Z,91.01
2022-09-07T03:10:31.101Z,91.95
2022-09-07T03:12:58.963Z,91.71
2022-09-07T03:15:29.028Z,92.44
2022-09-07T03:17:58.557Z,92.69
2022-09-07T03:20:26.523Z,92.02
2022-09-07T03:22:54.419Z,91.30
2022-09-07T03:25:22.857Z,91.42
2022-09-07T03:27:50.795Z,91.83
2022-09-07T03:30:18.796Z,92.51
2022-09-07T03:32:47.491Z,94.00
2022-09-07T03:35:17.189Z,94.45
2022-09-07T03:37:45.492Z,94.88
2022-09-07T03:40:15.988Z,94.45
2022-09-07T03:42:44.277Z,95.03
2022-09-07T03:45:12.454Z,94.38
2022-09-07T03:47:40.762Z,94.62
2022-09-07T03:50:09.448Z,95.79
2022-09-07T03:52:39.556Z,96.37
2022-09-07T03:55:07.963Z,96.69
2022-09-07T03:57:36.075Z,96.97
2022-09-07T04:00:05.387Z,97.81
2022-09-07T04:02:33.473Z,97.76
2022-09-07T04:05:01.417Z,97.96
2022-09-07T04:07:29.297Z,98.18
2022-09-07T04:09:58.689Z,97.41
2022-09-07T04:12:26.595Z,97.13
2022-09-07T04:14:54.478Z,96.75
2022-09-07T04:17:22.339Z,96.02
2022-09-07T04:19:50.220Z,96.83
2022-09-07T04:22:18.121Z,97.19
2022-09-07T04:24:46.021Z,97.49
2022-09-07T04:27:15.295Z,97.61
2022-09-07T04:29:43.187Z,97.05
2022-09-07T04:32:15.556Z,95.80
2022-09-07T04:34:43.794Z,96.20
2022-09-07T04:37:12.751Z,96.85
2022-09-07T04:39:40.784Z,96.88
2022-09-07T04:42:08.824Z,97.49
2022-09-07T04:44:38.117Z,97.98
2022-09-07T04:47:06.209Z,98.08
2022-09-07T04:49:34.139Z,98.24
2022-09-07T04:52:03.173Z,98.75
2022-09-07T04:54:31.102Z,98.72
2022-09-07T04:56:59.022Z,98.80
2022-09-07T04:59:27.035Z,99.04
2022-09-07T05:01:56.359Z,99.37
2022-09-07T05:04:24.301Z,99.39
2022-09-07T05:06:54.266Z,99.36
2022-09-07T05:09:22.267Z,98.70
2022-09-07T05:11:50.167Z,98.77
2022-09-07T05:14:18.100Z,98.57
2022-09-07T05:16:46.175Z,98.85
2022-09-07T05:19:16.004Z,98.99
2022-09-07T05:21:43.888Z,98.88
2022-09-07T05:24:11.905Z,98.97
2022-09-07T05:26:40.251Z,98.63
2022-09-07T05:31:57.129Z,98.32
2022-09-07T05:36:55.949Z,97.54
2022-09-07T05:39:24.027Z,97.32
2022-09-07T05:41:51.965Z,97.78
2022-09-07T05:47:08.290Z,97.21
2022-09-07T05:49:37.593Z,96.84
2022-09-07T05:52:05.717Z,96.25
2022-09-07T05:54:33.638Z,95.84
2022-09-07T05:57:03.133Z,95.61
2022-09-07T05:59:31.085Z,95.08
2022-09-07T06:01:59.630Z,94.44
2022-09-07T06:04:27.710Z,94.41
2022-09-07T06:12:33.372Z,92.10
2022-09-07T06:15:01.586Z,91.95
2022-09-07T06:17:29.908Z,91.21
2022-09-07T06:19:57.945Z,90.69
2022-09-07T06:22:30.767Z,90.23
2022-09-07T06:24:59.653Z,89.87
2022-09-07T06:27:27.803Z,88.72
2022-09-07T06:29:55.841Z,88.26
2022-09-07T06:35:12.289Z,88.28
2022-09-07T06:37:42.267Z,88.09
2022-09-07T06:40:12.043Z,87.51
2022-09-07T06:42:40.039Z,87.21
2022-09-07T06:45:10.064Z,87.05
2022-09-07T06:47:38.131Z,86.67
2022-09-07T06:50:06.556Z,85.72
2022-09-07T06:55:27.606Z,85.52
2022-09-07T06:57:55.645Z,84.57
2022-09-07T07:00:23.814Z,84.40
2022-09-07T07:02:51.946Z,83.37
2022-09-07T07:05:19.956Z,83.55
2022-09-07T07:07:48.054Z,83.33
2022-09-07T07:10:18.763Z,83.56
2022-09-07T07:12:50.235Z,82.58
2022-09-07T07:15:18.283Z,81.21
2022-09-07T07:17:51.946Z,80.90
2022-09-07T07:20:24.293Z,80.48
2022-09-07T07:22:52.763Z,79.86
2022-09-07T07:25:21.242Z,80.41
2022-09-07T07:27:50.977Z,80.44
2022-09-07T07:30:20.028Z,79.08
2022-09-07T07:32:50.162Z,78.92
2022-09-07T07:35:18.395Z,77.37
2022-09-07T07:37:48.078Z,76.92
2022-09-07T07:40:17.770Z,75.91
2022-09-07T07:42:50.172Z,75.83
2022-09-07T07:48:06.633Z,75.58
2022-09-07T07:50:34.935Z,75.76
2022-09-07T07:55:51.366Z,76.30
2022-09-07T07:58:20.860Z,75.54
2022-09-07T08:00:56.624Z,75.11
2022-09-07T08:03:26.142Z,73.93
2022-09-07T08:05:54.183Z,73.48
2022-09-07T08:08:23.076Z,72.45
2022-09-07T08:10:51.422Z,72.24
2022-09-07T08:13:21.328Z,71.97
2022-09-07T08:15:49.388Z,72.72
2022-09-07T08:18:18.521Z,72.41
2022-09-07T08:20:49.759Z,73.27
2022-09-07T08:23:20.269Z,73.07
2022-09-07T08:25:51.971Z,73.56
2022-09-07T08:28:24.801Z,74.41
2022-09-07T08:30:52.694Z,73.84
2022-09-07T08:33:21.379Z,73.25
2022-09-07T08:35:56.276Z,73.51
2022-09-07T08:38:24.568Z,73.94
2022-09-07T08:40:53.033Z,74.04
2022-09-07T08:43:45.856Z,74.33
2022-09-07T08:46:27.776Z,75.44
2022-09-07T08:48:57.210Z,75.52
2022-09-07T08:51:38.166Z,74.70
2022-09-07T08:54:06.839Z,75.44
2022-09-07T08:56:39.539Z,75.91
2022-09-07T08:59:20.161Z,73.09
2022-09-07T09:02:26.885Z,71.85
2022-09-07T09:05:16.422Z,72.54
2022-09-07T09:07:31.740Z,71.86
2022-09-07T09:10:20.747Z,71.70
2022-09-07T09:13:04.340Z,71.44
2022-09-07T09:15:45.413Z,72.19
2022-09-07T09:18:28.804Z,71.00
2022-09-07T09:20:58.136Z,70.68
2022-09-07T09:23:28.830Z,71.66
2022-09-07T09:25:59.060Z,70.37
2022-09-07T09:28:28.948Z,69.96
2022-09-07T09:31:01.218Z,69.57
2022-09-07T09:33:29.895Z,69.61
2022-09-07T09:36:00.439Z,69.17
2022-09-07T09:38:39.435Z,69.85
2022-09-07T09:41:09.694Z,68.63
2022-09-07T09:43:42.656Z,67.52
2022-09-07T09:46:26.971Z,68.27
2022-09-07T09:48:58.289Z,66.61
2022-09-07T09:54:25.636Z,64.53
2022-09-07T09:56:53.386Z,64.97
2022-09-07T10:05:31.200Z,66.31
2022-09-07T10:07:59.311Z,65.92
2022-09-07T10:10:28.772Z,64.81
2022-09-07T10:12:57.542Z,64.46
2022-09-07T10:15:39.975Z,64.03
2022-09-07T10:18:21.274Z,64.34
2022-09-07T10:20:49.747Z,64.64
2022-09-07T10:23:23.083Z,64.43
2022-09-07T10:25:51.208Z,63.87
2022-09-07T10:28:21.743Z,63.54
2022-09-07T10:31:15.151Z,63.59
2022-09-07T10:36:47.456Z,61.45
2022-09-07T10:39:19.365Z,61.86
2022-09-07T10:42:01.516Z,62.40
2022-09-07T10:44:43.690Z,61.19
2022-09-07T10:47:24.839Z,61.03
2022-09-07T10:52:57.307Z,60.43
2022-09-07T10:55:32.844Z,59.07
2022-09-07T10:58:16.985Z,59.20
2022-09-07T11:00:59.294Z,59.71
2022-09-07T11:03:54.303Z,59.71
2022-09-07T11:06:30.979Z,59.60
2022-09-07T11:09:48.152Z,58.67
2022-09-07T11:12:20.749Z,58.80
2022-09-07T11:14:58.894Z,58.09
2022-09-07T11:17:29.181Z,58.94
2022-09-07T11:20:10.239Z,58.46
2022-09-07T11:22:47.385Z,59.15
2022-09-07T11:25:36.640Z,57.22
2022-09-07T11:28:13.874Z,57.15
2022-09-07T11:30:46.917Z,57.53
2022-09-07T11:33:20.806Z,56.94
2022-09-07T11:35:54.124Z,56.12
2022-09-07T11:38:30.621Z,56.08
2022-09-07T11:41:23.234Z,54.24
2022-09-07T11:43:58.259Z,55.50
2022-09-07T11:46:33.711Z,54.73
2022-09-07T11:49:04.506Z,53.72
2022-09-07T11:51:41.608Z,54.46
2022-09-07T11:54:26.044Z,53.36
2022-09-07T11:56:59.150Z,50.53
2022-09-07T11:59:39.906Z,51.31
2022-09-07T12:02:59.451Z,51.14
2022-09-07T12:05:42.522Z,51.47
2022-09-07T12:08:26.631Z,50.28
2022-09-07T12:11:23.502Z,50.43
2022-09-07T12:14:16.386Z,50.31
2022-09-07T12:17:01.647Z,50.89
2022-09-07T12:19:30.120Z,49.06
2022-09-07T12:21:59.514Z,49.33
2022-09-07T12:24:49.927Z,48.31
2022-09-07T12:27:39.296Z,48.36
2022-09-07T12:30:52.838Z,49.02
2022-09-07T12:33:39.572Z,48.96
2022-09-07T12:36:44.074Z,48.61
2022-09-07T12:39:25.655Z,47.76
2022-09-07T12:45:35.890Z,46.02
2022-09-07T12:48:19.549Z,46.75
2022-09-07T12:50:58.831Z,46.81
2022-09-07T12:53:34.645Z,46.68
2022-09-07T12:56:21.032Z,46.60
2022-09-07T12:59:16.040Z,44.59
2022-09-07T13:01:58.019Z,43.85
2022-09-07T13:05:01.570Z,44.07
2022-09-07T13:08:06.983Z,43.83
2022-09-07T13:10:38.247Z,44.09
2022-09-07T13:13:07.932Z,44.01
2022-09-07T13:15:41.463Z,45.59
2022-09-07T13:18:15.433Z,46.88
2022-09-07T13:20:44.557Z,48.13
2022-09-07T13:23:31.163Z,47.92
2022-09-07T13:26:01.291Z,48.58
2022-09-07T13:28:41.968Z,54.20
2022-09-07T13:31:25.980Z,56.82
2022-09-07T13:33:54.638Z,58.65
2022-09-07T13:36:38.724Z,60.33
2022-09-07T13:39:10.231Z,60.85
2022-09-07T13:41:43.338Z,61.25
2022-09-07T13:44:25.229Z,59.74
2022-09-07T13:47:03.622Z,58.09
2022-09-07T13:49:44.001Z,55.42
2022-09-07T13:52:18.993Z,56.01
2022-09-07T13:54:58.564Z,53.55
2022-09-07T13:57:29.789Z,51.87
2022-09-07T13:59:58.636Z,51.77
2022-09-07T14:02:29.592Z,50.09
2022-09-07T14:05:00.368Z,49.25
2022-09-07T14:07:31.442Z,48.00
2022-09-07T14:10:08.171Z,47.74
2022-09-07T14:12:43.593Z,44.92
2022-09-07T14:15:20.278Z,40.47
2022-09-07T14:17:49.666Z,36.65
2022-09-07T14:20:19.190Z,39.75
2022-09-07T14:22:53.220Z,41.85
2022-09-07T14:25:22.721Z,43.32
2022-09-07T14:27:51.103Z,45.18
2022-09-07T14:30:25.652Z,44.35
2022-09-07T14:32:55.832Z,46.47
2022-09-07T14:35:26.266Z,47.14
2022-09-07T14:37:58.428Z,45.92
2022-09-07T14:40:27.759Z,45.40
2022-09-07T14:42:58.119Z,44.29
2022-09-07T14:45:34.168Z,41.53
2022-09-07T14:48:13.269Z,40.01
2022-09-07T14:50:41.927Z,40.54
2022-09-07T14:53:34.807Z,40.47
2022-09-07T14:56:09.071Z,41.40
2022-09-07T14:58:36.956Z,41.13
2022-09-07T15:04:19.692Z,41.51
2022-09-07T15:07:03.528Z,42.88
2022-09-07T15:09:37.532Z,41.54
2022-09-07T15:12:24.910Z,39.43
2022-09-07T15:15:11.037Z,42.05
2022-09-07T15:17:46.209Z,43.31
2022-09-07T15:20:43.389Z,43.98
2022-09-07T15:23:13.388Z,44.92
2022-09-07T15:25:48.224Z,43.06
2022-09-07T15:34:02.107Z,45.79
2022-09-07T15:36:31.961Z,46.64
2022-09-07T15:39:00.693Z,46.64
2022-09-07T15:41:30.272Z,45.30
2022-09-07T15:43:58.673Z,46.11
2022-09-07T15:46:27.380Z,46.20
2022-09-07T15:48:56.922Z,45.85
2022-09-07T15:54:14.620Z,45.97
2022-09-07T15:57:48.374Z,45.71
2022-09-07T15:59:32.610Z,45.66
2022-09-07T16:02:00.773Z,45.05
2022-09-07T16:04:28.947Z,44.50
2022-09-07T16:06:56.920Z,44.53
2022-09-07T16:09:24.950Z,44.91
2022-09-07T16:11:54.493Z,46.45
2022-09-07T16:14:22.599Z,46.56
2022-09-07T16:19:41.083Z,45.44
2022-09-07T16:22:09.624Z,46.91
2022-09-07T16:24:37.775Z,46.83
2022-09-07T16:27:07.183Z,47.40
2022-09-07T16:29:37.926Z,47.24
2022-09-07T16:34:54.893Z,47.42
2022-09-07T16:37:22.673Z,48.79
2022-09-07T16:39:51.479Z,47.97
2022-09-07T16:42:20.784Z,48.78
2022-09-07T16:44:49.339Z,48.54
2022-09-07T16:47:17.340Z,48.80
2022-09-07T16:49:45.084Z,49.56
2022-09-07T16:52:12.872Z,49.51
2022-09-07T16:54:40.648Z,49.55
2022-09-07T16:57:08.560Z,49.97
2022-09-07T16:59:37.638Z,50.36
2022-09-07T17:02:05.446Z,50.84
2022-09-07T17:04:33.245Z,51.16
2022-09-07T17:07:01.013Z,51.62
2022-09-07T17:09:28.778Z,51.24
2022-09-07T17:11:56.567Z,51.10
2022-09-07T17:14:24.355Z,50.44
2022-09-07T17:16:53.577Z,51.03
2022-09-07T17:19:30.031Z,49.97
2022-09-07T17:21:59.654Z,50.06
2022-09-07T17:24:27.535Z,49.79
2022-09-07T17:26:55.398Z,49.96
2022-09-07T17:29:23.547Z,49.63
2022-09-07T17:34:40.558Z,49.29
2022-09-07T17:37:09.258Z,49.57
2022-09-07T17:39:38.602Z,49.34
2022-09-07T17:42:06.649Z,49.85
2022-09-07T17:44:37.970Z,50.01
2022-09-07T17:47:07.724Z,50.22
2022-09-07T17:49:35.656Z,50.29
2022-09-07T17:52:03.783Z,50.91
2022-09-07T17:54:31.954Z,51.11
2022-09-07T17:56:59.813Z,50.67
2022-09-07T18:02:16.926Z,50.69
2022-09-07T18:04:44.879Z,50.52
2022-09-07T18:07:12.724Z,51.10
2022-09-07T18:09:40.437Z,50.69
2022-09-07T18:12:08.361Z,51.07
2022-09-07T18:14:36.186Z,51.02
2022-09-07T18:17:05.015Z,50.90
2022-09-07T18:19:34.393Z,50.87
2022-09-07T18:22:06.564Z,51.11
2022-09-07T18:24:37.136Z,50.71
2022-09-07T18:27:06.368Z,51.06
2022-09-07T18:29:35.170Z,51.25
2022-09-07T18:32:08.873Z,51.25
2022-09-07T18:34:41.291Z,52.16
2022-09-07T18:37:12.143Z,52.36
2022-09-07T18:39:41.128Z,52.42
2022-09-07T18:42:09.323Z,52.47
2022-09-07T18:47:28.715Z,52.70
2022-09-07T18:49:58.956Z,52.26
2022-09-07T18:55:21.339Z,52.33
2022-09-07T18:57:50.128Z,52.46
2022-09-07T19:00:20.759Z,52.19
2022-09-07T19:02:53.421Z,52.80
2022-09-07T19:08:11.274Z,53.46
2022-09-07T19:10:39.944Z,54.00
2022-09-07T19:13:07.981Z,55.55
2022-09-07T19:15:37.684Z,53.53
2022-09-07T19:18:07.899Z,53.01
2022-09-07T19:20:37.607Z,53.04
2022-09-07T19:23:06.695Z,53.33
2022-09-07T19:25:34.578Z,53.13
2022-09-07T19:28:02.744Z,53.77
2022-09-07T19:30:30.603Z,54.37
2022-09-07T19:33:03.386Z,54.68
2022-09-07T19:35:37.971Z,54.25
2022-09-07T19:38:05.924Z,54.74
2022-09-07T19:40:34.445Z,55.07
2022-09-07T19:43:03.202Z,55.24
2022-09-07T19:45:31.113Z,56.78
2022-09-07T19:47:59.243Z,56.95
2022-09-07T19:50:27.097Z,58.90
2022-09-07T19:52:56.820Z,58.43
2022-09-07T19:55:25.199Z,59.06
2022-09-07T19:57:53.175Z,59.92
2022-09-07T20:00:22.602Z,60.11
2022-09-07T20:02:51.109Z,61.43
2022-09-07T20:05:19.432Z,61.93
2022-09-07T20:07:47.258Z,62.85
2022-09-07T20:10:16.734Z,63.38
2022-09-07T20:12:44.786Z,64.13
2022-09-07T20:15:12.934Z,64.30
2022-09-07T20:17:41.173Z,65.57
2022-09-07T20:20:11.131Z,65.84
2022-09-07T20:22:41.907Z,66.56
2022-09-07T20:25:13.405Z,67.42
2022-09-07T20:27:43.999Z,68.37
2022-09-07T20:30:13.584Z,69.07
2022-09-07T20:32:41.953Z,68.82
2022-09-07T20:35:13.686Z,68.61
2022-09-07T20:37:41.506Z,68.67
2022-09-07T20:40:10.598Z,69.41
2022-09-07T20:42:39.211Z,70.18
2022-09-07T20:45:11.550Z,69.98
2022-09-07T20:47:40.875Z,70.88
2022-09-07T20:50:09.734Z,71.22
2022-09-07T20:52:40.158Z,71.70
2022-09-07T20:55:09.481Z,72.39
2022-09-07T20:57:37.964Z,72.57
2022-09-07T21:00:09.376Z,72.75
2022-09-07T21:02:39.337Z,73.11
2022-09-07T21:05:08.732Z,73.11
2022-09-07T21:07:39.097Z,73.45
2022-09-07T21:10:08.263Z,73.42
2022-09-07T21:12:37.014Z,73.17
2022-09-07T21:15:05.726Z,73.57
2022-09-07T21:17:33.730Z,73.40
2022-09-07T21:20:03.895Z,73.62
2022-09-07T21:22:32.466Z,73.69
2022-09-07T21:25:02.012Z,73.81
2022-09-07T21:27:38.103Z,74.36
2022-09-07T21:30:07.465Z,73.75
2022-09-07T21:32:35.265Z,74.98
2022-09-07T21:35:04.539Z,75.74
2022-09-07T21:37:32.492Z,76.20
2022-09-07T21:40:00.288Z,76.34
2022-09-07T21:42:28.113Z,76.62
2022-09-07T21:44:55.866Z,77.03
2022-09-07T21:47:23.556Z,77.54
2022-09-07T21:49:51.880Z,76.53
2022-09-07T21:52:20.968Z,76.30
2022-09-07T21:54:49.717Z,76.33
2022-09-07T21:57:17.434Z,76.60
2022-09-07T21:59:45.413Z,77.29
2022-09-07T22:02:13.375Z,77.11
2022-09-07T22:04:41.584Z,77.26
2022-09-07T22:07:09.366Z,77.37
2022-09-07T22:09:38.462Z,77.58
2022-09-07T22:12:06.730Z,77.98
2022-09-07T22:14:34.602Z,78.38
2022-09-07T22:17:02.422Z,77.85
2022-09-07T22:19:30.136Z,77.82
2022-09-07T22:21:58.034Z,78.59
2022-09-07T22:24:25.865Z,79.17
2022-09-07T22:26:55.055Z,79.69
2022-09-07T22:29:22.853Z,79.97
2022-09-07T22:31:50.814Z,80.13
2022-09-07T22:34:18.829Z,80.35
2022-09-07T22:36:47.182Z,80.57
2022-09-07T22:39:17.037Z,80.25
2022-09-07T22:41:46.007Z,80.31
2022-09-07T22:44:17.053Z,79.98
2022-09-07T22:46:46.995Z,80.10
2022-09-07T22:49:16.901Z,80.46
2022-09-07T22:51:45.178Z,80.61
2022-09-07T22:54:13.259Z,80.74
2022-09-07T22:56:41.345Z,80.74
2022-09-07T22:59:10.527Z,80.23
2022-09-07T23:01:40.256Z,80.53
2022-09-07T23:04:08.864Z,80.41
2022-09-07T23:06:38.529Z,79.86
2022-09-07T23:09:08.346Z,80.19
2022-09-07T23:11:36.390Z,80.83
2022-09-07T23:14:07.063Z,80.06
2022-09-07T23:16:35.119Z,79.89
2022-09-07T23:19:04.603Z,79.89
2022-09-07T23:21:32.854Z,80.43
2022-09-07T23:24:01.646Z,79.98
2022-09-07T23:26:31.509Z,80.75
2022-09-07T23:29:01.803Z,80.56
2022-09-07T23:31:31.036Z,80.29
2022-09-07T23:33:59.713Z,80.48
2022-09-07T23:36:29.662Z,80.92
2022-09-07T23:38:58.992Z,80.65
2022-09-07T23:41:27.532Z,81.32
2022-09-07T23:43:55.882Z,81.22
2022-09-07T23:46:24.483Z,81.28
2022-09-07T23:48:52.525Z,81.12
2022-09-07T23:51:24.235Z,81.02
2022-09-07T23:53:54.318Z,80.68
2022-09-07T23:56:24.599Z,80.36
2022-09-07T23:58:53.245Z,80.08
